Time;durP1;ratioP1;P1;durP2;ratioP2;P2;SDS_P1;SDS_P2;PMS_P1;PMS_P2;Temp;Humidity;BMP_temperature;BMP_pressure;BME280_temperature;BME280_humidity;BME280_pressure;Samples;Min_cycle;Max_cycle;Signal;HPM_P1;HPM_P2
2021/01/17 00:00:12;;;;;;;23.53;12.00;;;-0.70;99.90;;;;;;5035639;28;20892;-68
2021/01/17 00:02:38;;;;;;;20.23;10.83;;;-0.70;99.90;;;;;;5027575;28;20980;-67
2021/01/17 00:05:24;;;;;;;15.63;10.10;;;-0.70;99.90;;;;;;5032022;28;20434;-67
2021/01/17 00:07:50;;;;;;;18.00;10.53;;;-0.60;99.90;;;;;;5026265;28;20442;-67
2021/01/17 00:10:23;;;;;;;17.23;10.27;;;-0.70;99.90;;;;;;5029223;28;20448;-67
2021/01/17 00:12:50;;;;;;;18.20;11.27;;;-0.60;99.90;;;;;;5037963;28;20443;-68
2021/01/17 00:15:17;;;;;;;20.60;10.70;;;-0.60;99.90;;;;;;5032850;28;20456;-67
2021/01/17 00:17:44;;;;;;;14.93;10.87;;;-0.60;99.90;;;;;;5026819;28;20454;-67
2021/01/17 00:20:14;;;;;;;19.03;10.93;;;-0.70;99.90;;;;;;5033914;28;20936;-67
2021/01/17 00:22:41;;;;;;;12.93;9.30;;;-0.70;99.90;;;;;;5025829;28;20498;-68
2021/01/17 00:25:09;;;;;;;16.93;10.00;;;-0.70;99.90;;;;;;5029747;28;20444;-67
2021/01/17 00:27:35;;;;;;;23.47;12.00;;;-0.70;99.90;;;;;;5025818;28;20527;-68
2021/01/17 00:30:03;;;;;;;16.90;10.50;;;-0.60;99.90;;;;;;5026415;28;20444;-67
2021/01/17 00:32:28;;;;;;;24.80;11.10;;;-0.60;99.90;;;;;;5026849;28;20242;-67
2021/01/17 00:34:54;;;;;;;20.37;10.10;;;-0.60;99.90;;;;;;5027298;28;20806;-67
2021/01/17 00:37:20;;;;;;;18.67;11.80;;;-0.60;99.90;;;;;;5024126;28;20261;-67
2021/01/17 00:39:46;;;;;;;13.07;10.30;;;-0.50;99.90;;;;;;5029726;28;20187;-68
2021/01/17 00:42:16;;;;;;;19.90;11.00;;;-0.50;99.90;;;;;;5028374;28;20187;-67
2021/01/17 00:44:43;;;;;;;19.53;11.47;;;-0.60;99.90;;;;;;5026706;28;20265;-67
2021/01/17 00:47:15;;;;;;;17.90;9.90;;;-0.60;99.90;;;;;;5024315;28;20450;-67
2021/01/17 00:49:44;;;;;;;17.80;10.17;;;-0.60;99.90;;;;;;5025850;28;20437;-67
2021/01/17 00:52:20;;;;;;;17.43;10.47;;;-0.60;99.90;;;;;;5025027;28;20439;-67
2021/01/17 00:54:47;;;;;;;21.93;9.73;;;-0.60;99.90;;;;;;5024738;28;20464;-67
2021/01/17 00:57:16;;;;;;;18.33;10.70;;;-0.70;99.90;;;;;;5026870;28;20438;-68
2021/01/17 00:59:42;;;;;;;16.50;9.23;;;-0.70;99.90;;;;;;5023384;28;20464;-67
2021/01/17 01:02:08;;;;;;;15.93;10.60;;;-0.70;99.90;;;;;;5028447;28;20896;-67
2021/01/17 01:04:34;;;;;;;18.20;10.67;;;-0.60;99.90;;;;;;5026118;28;20447;-68
2021/01/17 01:07:00;;;;;;;16.77;10.00;;;-0.60;99.90;;;;;;5025116;28;20494;-67
2021/01/17 01:09:26;;;;;;;15.90;9.23;;;-0.70;99.90;;;;;;5023046;28;20188;-68
2021/01/17 01:11:52;;;;;;;16.87;10.70;;;-0.70;99.90;;;;;;5020816;28;20777;-67
2021/01/17 01:14:18;;;;;;;16.47;11.13;;;-0.70;99.90;;;;;;5025944;28;20548;-67
2021/01/17 01:16:48;;;;;;;19.50;10.50;;;-0.80;99.90;;;;;;5029384;28;21012;-67
2021/01/17 01:19:15;;;;;;;18.33;10.20;;;-0.80;99.90;;;;;;5025252;28;20838;-68
2021/01/17 01:21:40;;;;;;;18.67;10.17;;;-0.70;99.90;;;;;;5029396;28;20440;-68
2021/01/17 01:24:06;;;;;;;17.93;10.30;;;-0.80;99.90;;;;;;5025115;28;20438;-67
2021/01/17 01:26:40;;;;;;;14.20;9.50;;;-0.90;99.90;;;;;;5029533;28;20181;-68
2021/01/17 01:29:07;;;;;;;19.40;9.83;;;-0.80;99.90;;;;;;5026126;28;20518;-68
2021/01/17 01:31:34;;;;;;;20.37;10.53;;;-0.80;99.90;;;;;;5027383;28;20533;-67
2021/01/17 01:34:00;;;;;;;15.17;9.63;;;-0.70;99.90;;;;;;5024538;28;20501;-67
2021/01/17 01:36:28;;;;;;;25.07;12.80;;;-0.70;99.90;;;;;;5022327;28;20594;-67
2021/01/17 01:38:55;;;;;;;18.43;9.27;;;-0.80;99.90;;;;;;5024352;28;20507;-67
2021/01/17 01:41:25;;;;;;;16.40;8.97;;;-0.80;99.90;;;;;;5027679;28;20437;-67
2021/01/17 01:43:51;;;;;;;15.50;9.27;;;-0.80;99.90;;;;;;5007111;28;20425;-67
2021/01/17 01:46:23;;;;;;;17.30;9.90;;;-0.70;99.90;;;;;;5022716;28;20929;-67
2021/01/17 01:48:50;;;;;;;19.37;10.40;;;-0.70;99.90;;;;;;5023126;28;20440;-67
2021/01/17 01:51:22;;;;;;;23.67;11.43;;;-0.70;99.90;;;;;;5025896;28;20817;-67
2021/01/17 01:53:51;;;;;;;14.10;8.83;;;-0.60;99.90;;;;;;5027214;28;20921;-67
2021/01/17 01:56:17;;;;;;;18.10;9.80;;;-0.60;99.90;;;;;;5027277;28;20432;-68
2021/01/17 01:58:43;;;;;;;21.60;10.47;;;-0.60;99.90;;;;;;5024655;28;20547;-67
2021/01/17 02:01:09;;;;;;;16.93;9.10;;;-0.60;99.90;;;;;;5028764;28;20320;-67
2021/01/17 02:03:36;;;;;;;20.50;11.60;;;-0.60;99.90;;;;;;5027617;28;20765;-67
2021/01/17 02:06:03;;;;;;;18.37;10.23;;;-0.60;99.90;;;;;;5006448;28;20444;-67
2021/01/17 02:08:51;;;;;;;14.73;9.43;;;-0.60;99.90;;;;;;5023129;28;20425;-67
2021/01/17 02:11:52;;;;;;;19.20;10.23;;;-0.60;99.90;;;;;;5030114;28;20433;-67
2021/01/17 02:15:01;;;;;;;19.43;11.20;;;-0.60;99.90;;;;;;5033538;28;20461;-67
2021/01/17 02:17:29;;;;;;;18.20;9.57;;;-0.60;99.90;;;;;;5028340;28;20437;-67
2021/01/17 02:20:17;;;;;;;18.27;9.67;;;-0.60;99.90;;;;;;5031805;28;20465;-67
2021/01/17 02:23:01;;;;;;;15.77;8.93;;;-0.60;99.90;;;;;;5032468;28;20516;-67
2021/01/17 02:25:28;;;;;;;16.63;9.50;;;-0.50;99.90;;;;;;5034937;28;20445;-67
2021/01/17 02:28:00;;;;;;;16.40;9.10;;;-0.50;99.90;;;;;;5031216;28;20573;-68
2021/01/17 02:30:29;;;;;;;17.67;11.00;;;-0.50;99.90;;;;;;5035385;28;20445;-68
2021/01/17 02:33:01;;;;;;;14.27;9.60;;;-0.50;99.90;;;;;;5033228;28;20431;-68
2021/01/17 02:35:29;;;;;;;13.80;8.73;;;-0.50;99.90;;;;;;5032403;28;20463;-68
2021/01/17 02:38:14;;;;;;;16.67;10.80;;;-0.50;99.90;;;;;;5031581;28;20765;-68
2021/01/17 02:40:49;;;;;;;21.30;11.00;;;-0.50;99.90;;;;;;5035082;28;21066;-67
2021/01/17 02:43:16;;;;;;;17.00;8.27;;;-0.50;99.90;;;;;;5004275;28;20571;-67
2021/01/17 02:45:41;;;;;;;15.23;10.00;;;-0.50;99.90;;;;;;5036780;28;20443;-67
2021/01/17 02:48:08;;;;;;;21.57;9.93;;;-0.50;99.90;;;;;;5031647;28;20464;-67
2021/01/17 02:50:33;;;;;;;18.67;9.97;;;-0.50;99.90;;;;;;5033196;28;20199;-67
2021/01/17 02:53:09;;;;;;;20.37;10.50;;;-0.40;99.90;;;;;;5035767;28;20447;-67
2021/01/17 02:55:38;;;;;;;20.80;10.03;;;-0.50;99.90;;;;;;5034586;28;20618;-68
2021/01/17 02:58:07;;;;;;;18.67;11.20;;;-0.40;99.90;;;;;;5033974;28;20433;-67
2021/01/17 03:00:34;;;;;;;19.23;10.43;;;-0.40;99.90;;;;;;5030054;28;22119;-67
2021/01/17 03:03:01;;;;;;;18.93;10.20;;;-0.40;99.90;;;;;;5033358;28;20471;-67
2021/01/17 03:05:27;;;;;;;16.60;10.90;;;-0.40;99.90;;;;;;5033145;28;20456;-67
2021/01/17 03:07:55;;;;;;;18.40;10.23;;;-0.40;99.90;;;;;;5031435;28;20751;-67
2021/01/17 03:10:22;;;;;;;19.17;10.80;;;-0.40;99.90;;;;;;5032454;28;20476;-67
2021/01/17 03:12:48;;;;;;;19.07;11.07;;;-0.40;99.90;;;;;;5036498;28;20450;-67
2021/01/17 03:15:16;;;;;;;18.07;9.73;;;-0.40;99.90;;;;;;5035246;28;21028;-67
2021/01/17 03:17:43;;;;;;;16.90;9.40;;;-0.40;99.90;;;;;;5031245;28;20447;-67
2021/01/17 03:20:08;;;;;;;16.70;10.53;;;-0.40;99.90;;;;;;5034927;28;20838;-67
2021/01/17 03:22:34;;;;;;;18.73;10.57;;;-0.40;99.90;;;;;;5030922;28;20463;-67
2021/01/17 03:25:00;;;;;;;19.40;11.27;;;-0.40;99.90;;;;;;5037092;28;20435;-67
2021/01/17 03:27:26;;;;;;;19.60;10.57;;;-0.40;99.90;;;;;;5034891;28;20661;-67
2021/01/17 03:29:52;;;;;;;19.27;10.23;;;-0.40;99.90;;;;;;5035354;28;20182;-67
2021/01/17 03:32:18;;;;;;;17.47;11.07;;;-0.30;99.90;;;;;;5034774;28;20187;-67
2021/01/17 03:34:48;;;;;;;11.93;8.80;;;-0.40;99.90;;;;;;5037401;28;20230;-67
2021/01/17 03:37:18;;;;;;;23.20;12.37;;;-0.40;99.90;;;;;;5037802;28;20455;-67
2021/01/17 03:39:44;;;;;;;20.07;11.20;;;-0.40;99.90;;;;;;5035868;28;20539;-67
2021/01/17 03:42:10;;;;;;;15.90;11.43;;;-0.40;99.90;;;;;;5034979;28;20951;-67
2021/01/17 03:44:37;;;;;;;18.07;10.60;;;-0.40;99.90;;;;;;5040368;28;20619;-68
2021/01/17 03:47:04;;;;;;;16.07;10.30;;;-0.40;99.90;;;;;;5034138;28;20474;-66
2021/01/17 03:49:29;;;;;;;17.40;11.20;;;-0.40;99.90;;;;;;5037879;28;20443;-67
2021/01/17 03:51:55;;;;;;;20.47;11.67;;;-0.50;99.90;;;;;;5036753;28;20427;-67
2021/01/17 03:54:21;;;;;;;16.20;11.67;;;-0.50;99.90;;;;;;5038546;28;20754;-66
2021/01/17 03:56:47;;;;;;;13.60;10.07;;;-0.50;99.90;;;;;;5036896;28;20922;-67
2021/01/17 03:59:16;;;;;;;15.27;9.60;;;-0.60;99.90;;;;;;5035899;28;21181;-67
2021/01/17 04:01:45;;;;;;;20.60;11.87;;;-0.60;99.90;;;;;;5036713;28;20268;-67
2021/01/17 04:04:11;;;;;;;17.93;10.77;;;-0.60;99.90;;;;;;5033252;28;20975;-67
2021/01/17 04:06:37;;;;;;;14.67;10.87;;;-0.60;99.90;;;;;;5034031;28;20475;-67
2021/01/17 04:09:06;;;;;;;20.80;11.90;;;-0.60;99.90;;;;;;5036077;28;20443;-67
2021/01/17 04:11:32;;;;;;;19.70;9.87;;;-0.70;99.90;;;;;;5034448;28;20527;-67
2021/01/17 04:13:58;;;;;;;18.90;10.83;;;-0.60;99.90;;;;;;5037910;28;20434;-67
2021/01/17 04:16:24;;;;;;;19.83;10.37;;;-0.60;99.90;;;;;;5038876;28;20440;-67
2021/01/17 04:18:50;;;;;;;22.47;11.00;;;-0.60;99.90;;;;;;5033187;28;20606;-67
2021/01/17 04:21:16;;;;;;;26.30;11.97;;;-0.60;99.90;;;;;;5037457;28;20426;-67
2021/01/17 04:23:42;;;;;;;18.87;10.13;;;-0.60;99.90;;;;;;5032232;28;20919;-67
2021/01/17 04:26:09;;;;;;;15.50;10.37;;;-0.60;99.90;;;;;;5033859;28;20521;-66
2021/01/17 04:28:35;;;;;;;17.23;9.93;;;-0.60;99.90;;;;;;5034370;28;20427;-67
2021/01/17 04:31:01;;;;;;;17.03;10.10;;;-0.60;99.90;;;;;;5034633;28;20446;-67
2021/01/17 04:33:27;;;;;;;16.00;9.63;;;-0.60;99.90;;;;;;5036883;28;20433;-67
2021/01/17 04:35:53;;;;;;;14.43;9.80;;;-0.50;99.90;;;;;;5035751;28;20547;-67
2021/01/17 04:38:19;;;;;;;17.80;8.80;;;-0.50;99.90;;;;;;5033311;28;20184;-67
2021/01/17 04:40:44;;;;;;;16.27;10.03;;;-0.50;99.90;;;;;;5037332;28;20200;-67
2021/01/17 04:43:30;;;;;;;18.83;10.30;;;-0.50;99.90;;;;;;5035633;28;20182;-67
2021/01/17 04:46:00;;;;;;;20.37;11.10;;;-0.50;99.90;;;;;;5035897;28;20667;-67
2021/01/17 04:48:30;;;;;;;20.77;10.20;;;-0.50;99.90;;;;;;5030475;28;20895;-66
2021/01/17 04:51:04;;;;;;;19.33;11.73;;;-0.50;99.90;;;;;;5034594;28;20540;-67
2021/01/17 04:53:33;;;;;;;21.20;11.87;;;-0.50;99.90;;;;;;5034081;28;20738;-67
2021/01/17 04:56:20;;;;;;;21.97;12.33;;;-0.50;99.90;;;;;;5034372;28;20793;-67
2021/01/17 04:59:13;;;;;;;24.33;12.77;;;-0.50;99.90;;;;;;5033312;28;20431;-67
2021/01/17 05:02:11;;;;;;;22.77;12.27;;;-0.50;99.90;;;;;;5035714;28;20767;-67
2021/01/17 05:04:36;;;;;;;14.73;10.70;;;-0.50;99.90;;;;;;5020831;28;20449;-66
2021/01/17 05:07:15;;;;;;;19.53;11.60;;;-0.50;99.90;;;;;;5033586;28;20438;-67
2021/01/17 05:09:49;;;;;;;15.33;10.40;;;-0.60;99.90;;;;;;5032499;28;20183;-67
2021/01/17 05:12:15;;;;;;;20.93;10.53;;;-0.60;99.90;;;;;;5036412;28;20431;-67
2021/01/17 05:14:54;;;;;;;21.87;11.57;;;-0.60;99.90;;;;;;5038371;28;20554;-67
2021/01/17 05:17:21;;;;;;;22.50;11.17;;;-0.60;99.90;;;;;;5032067;28;20515;-67
2021/01/17 05:19:47;;;;;;;20.60;10.90;;;-0.60;99.90;;;;;;5031056;28;20763;-67
2021/01/17 05:22:14;;;;;;;15.37;9.97;;;-0.60;99.90;;;;;;5034776;28;20902;-67
2021/01/17 05:24:45;;;;;;;16.00;10.60;;;-0.60;99.90;;;;;;5032121;28;20877;-67
2021/01/17 05:27:11;;;;;;;18.80;10.50;;;-0.70;99.90;;;;;;5030941;28;20437;-67
2021/01/17 05:29:37;;;;;;;24.03;12.40;;;-0.70;99.90;;;;;;5037492;28;20787;-67
2021/01/17 05:32:05;;;;;;;22.80;10.73;;;-0.80;99.90;;;;;;5034100;28;20982;-67
2021/01/17 05:34:33;;;;;;;18.30;10.80;;;-0.80;99.90;;;;;;5031802;28;20233;-67
2021/01/17 05:37:12;;;;;;;23.47;11.13;;;-0.80;99.90;;;;;;5035275;28;20523;-67
2021/01/17 05:40:07;;;;;;;15.97;9.43;;;-0.80;99.90;;;;;;5032882;28;20427;-67
2021/01/17 05:42:38;;;;;;;15.60;10.83;;;-0.80;99.90;;;;;;5016284;28;20540;-67
2021/01/17 05:45:10;;;;;;;18.73;10.90;;;-0.70;99.90;;;;;;5034908;28;20947;-67
2021/01/17 05:47:36;;;;;;;21.40;9.63;;;-0.70;99.90;;;;;;5030798;28;20464;-67
2021/01/17 05:50:09;;;;;;;14.97;9.60;;;-0.70;99.90;;;;;;5035435;28;20442;-67
2021/01/17 05:52:36;;;;;;;17.40;9.60;;;-0.70;99.90;;;;;;5031383;28;20438;-67
2021/01/17 05:55:05;;;;;;;18.87;10.37;;;-0.70;99.90;;;;;;5029349;28;20942;-67
2021/01/17 05:57:33;;;;;;;18.17;10.17;;;-0.70;99.90;;;;;;5022339;28;20541;-67
2021/01/17 06:00:00;;;;;;;26.77;12.90;;;-0.70;99.90;;;;;;5032201;28;20456;-67
2021/01/17 06:02:26;;;;;;;14.20;10.97;;;-0.60;99.90;;;;;;5034345;28;20878;-67
2021/01/17 06:04:59;;;;;;;18.37;10.10;;;-0.60;99.90;;;;;;5033475;28;20751;-67
2021/01/17 06:07:27;;;;;;;17.23;10.10;;;-0.60;99.90;;;;;;5031763;28;20417;-67
2021/01/17 06:10:06;;;;;;;19.57;9.23;;;-0.60;99.90;;;;;;5033441;28;20545;-67
2021/01/17 06:12:37;;;;;;;19.43;9.77;;;-0.70;99.90;;;;;;5029767;28;20438;-67
2021/01/17 06:15:11;;;;;;;19.67;10.90;;;-0.70;99.90;;;;;;5036648;28;20452;-67
2021/01/17 06:17:47;;;;;;;17.17;9.73;;;-0.70;99.90;;;;;;5031945;28;20430;-67
2021/01/17 06:20:30;;;;;;;20.30;10.93;;;-0.70;99.90;;;;;;5036366;28;20428;-67
2021/01/17 06:22:58;;;;;;;16.07;8.93;;;-0.70;99.90;;;;;;5033834;28;20433;-67
2021/01/17 06:25:30;;;;;;;23.00;11.03;;;-0.70;99.90;;;;;;5033743;28;20530;-67
2021/01/17 06:28:10;;;;;;;19.67;11.03;;;-0.70;99.90;;;;;;5031613;28;20447;-67
2021/01/17 06:30:37;;;;;;;14.57;9.03;;;-0.60;99.90;;;;;;5034567;28;20439;-67
2021/01/17 06:33:04;;;;;;;17.60;11.27;;;-0.70;99.90;;;;;;5034091;28;20452;-66
2021/01/17 06:35:34;;;;;;;17.10;10.57;;;-0.70;99.90;;;;;;5032640;28;20999;-67
2021/01/17 06:38:15;;;;;;;17.60;10.73;;;-0.70;99.90;;;;;;5031970;28;20440;-67
2021/01/17 06:40:43;;;;;;;18.77;11.10;;;-0.80;99.90;;;;;;5030927;28;20442;-67
2021/01/17 06:43:13;;;;;;;19.80;10.20;;;-0.80;99.90;;;;;;5033887;28;20428;-67
2021/01/17 06:45:46;;;;;;;20.20;10.63;;;-0.80;99.90;;;;;;5035062;28;20447;-67
2021/01/17 06:48:22;;;;;;;17.90;10.70;;;-0.80;99.90;;;;;;5028052;28;20447;-67
2021/01/17 06:50:48;;;;;;;20.03;9.90;;;-0.80;99.90;;;;;;5035746;28;20435;-67
2021/01/17 06:53:25;;;;;;;21.17;11.50;;;-0.80;99.90;;;;;;5033501;28;20450;-67
2021/01/17 06:56:16;;;;;;;22.63;10.83;;;-0.90;99.90;;;;;;5030464;28;20938;-67
2021/01/17 06:58:46;;;;;;;24.13;11.30;;;-0.90;99.90;;;;;;5029526;28;20433;-67
2021/01/17 07:01:11;;;;;;;22.80;11.00;;;-0.90;99.90;;;;;;5033263;28;20486;-67
2021/01/17 07:04:03;;;;;;;17.40;9.60;;;-0.90;99.90;;;;;;5036257;28;20440;-67
2021/01/17 07:06:54;;;;;;;21.47;11.20;;;-0.90;99.90;;;;;;5036288;28;20177;-67
2021/01/17 07:09:34;;;;;;;21.13;12.13;;;-0.80;99.90;;;;;;5036391;28;20439;-67
2021/01/17 07:12:12;;;;;;;19.07;10.80;;;-0.80;99.90;;;;;;5032951;28;20455;-67
2021/01/17 07:14:41;;;;;;;17.07;10.00;;;-0.80;99.90;;;;;;5036616;28;20803;-66
2021/01/17 07:17:09;;;;;;;20.37;11.00;;;-0.80;99.90;;;;;;5034880;28;20429;-66
2021/01/17 07:19:39;;;;;;;16.80;9.63;;;-0.80;99.90;;;;;;5035172;28;20896;-67
2021/01/17 07:22:05;;;;;;;20.10;10.40;;;-0.90;99.90;;;;;;5036529;28;20993;-67
2021/01/17 07:24:33;;;;;;;18.40;9.33;;;-0.90;99.90;;;;;;5037220;28;20436;-67
2021/01/17 07:27:07;;;;;;;20.60;9.70;;;-0.90;99.90;;;;;;5035035;28;20442;-67
2021/01/17 07:29:36;;;;;;;19.90;10.40;;;-0.90;99.90;;;;;;5036123;28;20900;-67
2021/01/17 07:32:07;;;;;;;20.27;10.67;;;-0.90;99.90;;;;;;5030491;28;21256;-67
2021/01/17 07:34:38;;;;;;;18.20;9.70;;;-0.90;99.90;;;;;;5032657;28;20457;-67
2021/01/17 07:37:11;;;;;;;12.80;8.63;;;-0.90;99.90;;;;;;5034905;28;20429;-67
2021/01/17 07:39:40;;;;;;;17.13;9.23;;;-0.90;99.90;;;;;;5038470;28;20457;-67
2021/01/17 07:42:09;;;;;;;18.10;10.03;;;-0.90;99.90;;;;;;5034577;28;22858;-67
2021/01/17 07:44:45;;;;;;;14.63;8.80;;;-0.90;99.90;;;;;;5031108;28;20453;-67
2021/01/17 07:47:23;;;;;;;14.97;8.93;;;-0.90;99.90;;;;;;5033273;28;20456;-67
2021/01/17 07:49:51;;;;;;;13.37;8.00;;;-0.90;99.90;;;;;;5032352;28;20433;-66
2021/01/17 07:52:20;;;;;;;13.37;9.27;;;-0.90;99.90;;;;;;5036438;28;20440;-70
2021/01/17 07:54:46;;;;;;;17.13;9.57;;;-0.90;99.90;;;;;;5039598;28;20531;-67
2021/01/17 07:57:13;;;;;;;15.83;10.20;;;-0.80;99.90;;;;;;5033813;28;20565;-67
2021/01/17 07:59:40;;;;;;;14.70;9.07;;;-0.80;99.90;;;;;;5036212;28;20435;-67
2021/01/17 08:02:07;;;;;;;14.77;9.33;;;-0.80;99.90;;;;;;5034916;28;20428;-67
2021/01/17 08:04:33;;;;;;;16.80;10.83;;;-0.80;99.90;;;;;;5037219;28;20508;-67
2021/01/17 08:07:01;;;;;;;24.10;11.30;;;-0.80;99.90;;;;;;5033368;28;20515;-76
2021/01/17 08:09:47;;;;;;;17.80;10.27;;;-0.70;99.90;;;;;;5036293;28;20297;-76
2021/01/17 08:12:48;;;;;;;13.33;9.33;;;-0.70;99.90;;;;;;5035094;28;20806;-76
2021/01/17 08:15:15;;;;;;;15.63;8.37;;;-0.70;99.90;;;;;;5035055;28;20461;-75
2021/01/17 08:17:41;;;;;;;15.70;8.90;;;-0.80;99.90;;;;;;5030633;28;20443;-76
2021/01/17 08:20:08;;;;;;;15.67;9.00;;;-0.80;99.90;;;;;;5029414;28;20439;-76
2021/01/17 08:22:34;;;;;;;15.00;8.27;;;-0.80;99.90;;;;;;5039495;28;20511;-76
2021/01/17 08:25:07;;;;;;;15.00;8.23;;;-0.70;99.90;;;;;;5039623;28;20515;-76
2021/01/17 08:27:45;;;;;;;14.23;9.77;;;-0.70;99.90;;;;;;5035299;28;20173;-76
2021/01/17 08:30:15;;;;;;;17.80;8.53;;;-0.70;99.90;;;;;;5035725;28;20420;-76
2021/01/17 08:32:47;;;;;;;11.23;8.40;;;-0.70;99.90;;;;;;5038519;28;20533;-76
2021/01/17 08:35:13;;;;;;;11.63;7.77;;;-0.70;99.90;;;;;;5039250;28;20454;-77
2021/01/17 08:37:53;;;;;;;13.43;7.80;;;-0.60;99.90;;;;;;5020209;28;20433;-77
2021/01/17 08:40:28;;;;;;;16.17;8.00;;;-0.60;99.90;;;;;;5035604;28;20272;-76
2021/01/17 08:43:12;;;;;;;15.27;9.07;;;-0.60;99.90;;;;;;5037842;28;20456;-76
2021/01/17 08:45:38;;;;;;;11.83;7.90;;;-0.50;99.90;;;;;;5038573;28;20456;-77
2021/01/17 08:48:24;;;;;;;14.33;9.30;;;-0.50;99.90;;;;;;5036823;28;20433;-77
2021/01/17 08:51:10;;;;;;;13.33;8.43;;;-0.50;99.90;;;;;;5031822;28;20765;-76
2021/01/17 08:53:37;;;;;;;15.77;8.93;;;-0.50;99.90;;;;;;5037975;28;20440;-77
2021/01/17 08:56:15;;;;;;;17.03;7.83;;;-0.40;99.90;;;;;;5032608;28;20890;-76
2021/01/17 08:58:42;;;;;;;14.40;8.90;;;-0.50;99.90;;;;;;5035378;28;20442;-76
2021/01/17 09:01:09;;;;;;;11.77;6.93;;;-0.40;99.90;;;;;;5018099;28;20443;-76
2021/01/17 09:03:41;;;;;;;9.40;7.03;;;-0.40;99.90;;;;;;5030445;28;20434;-76
2021/01/17 09:06:12;;;;;;;14.90;8.27;;;-0.40;99.90;;;;;;5033563;28;20479;-77
2021/01/17 09:09:03;;;;;;;11.47;7.97;;;-0.40;99.90;;;;;;5027759;28;20765;-77
2021/01/17 09:11:29;;;;;;;12.67;7.80;;;-0.40;99.90;;;;;;5022186;28;20535;-77
2021/01/17 09:14:13;;;;;;;14.70;9.07;;;-0.40;99.90;;;;;;5033692;28;20533;-76
2021/01/17 09:16:50;;;;;;;8.80;6.80;;;-0.30;99.90;;;;;;5031984;28;20183;-77
2021/01/17 09:19:18;;;;;;;10.93;7.20;;;-0.30;99.90;;;;;;5036853;28;20814;-77
2021/01/17 09:21:46;;;;;;;13.70;7.57;;;-0.30;99.90;;;;;;5028639;28;20773;-76
2021/01/17 09:24:14;;;;;;;13.60;7.90;;;-0.30;99.90;;;;;;5035193;28;20431;-76
2021/01/17 09:26:48;;;;;;;12.40;8.00;;;-0.30;99.90;;;;;;5033243;28;20435;-76
2021/01/17 09:29:28;;;;;;;11.60;7.93;;;-0.30;99.90;;;;;;5026971;28;20440;-76
2021/01/17 09:32:03;;;;;;;10.17;6.23;;;-0.20;99.90;;;;;;5035947;28;20421;-76
2021/01/17 09:34:38;;;;;;;10.13;6.60;;;-0.20;99.90;;;;;;5033244;28;20543;-77
2021/01/17 09:37:07;;;;;;;12.07;7.83;;;-0.20;99.90;;;;;;5031335;28;20466;-76
2021/01/17 09:39:39;;;;;;;9.03;6.53;;;-0.10;99.90;;;;;;5026876;28;20432;-76
2021/01/17 09:42:07;;;;;;;10.83;6.63;;;-0.10;99.90;;;;;;5033595;28;20425;-77
2021/01/17 09:44:34;;;;;;;11.27;8.03;;;-0.10;99.90;;;;;;5034333;28;20454;-76
2021/01/17 09:47:00;;;;;;;10.63;6.63;;;-0.10;99.90;;;;;;5024398;28;20443;-75
2021/01/17 09:49:29;;;;;;;12.50;6.97;;;0.00;99.90;;;;;;5033936;28;20548;-77
2021/01/17 09:51:55;;;;;;;11.57;8.00;;;0.00;99.90;;;;;;5031007;28;20460;-76
2021/01/17 09:54:22;;;;;;;10.50;7.40;;;0.00;99.90;;;;;;5025099;28;20454;-77
2021/01/17 09:56:48;;;;;;;9.37;7.10;;;0.00;99.90;;;;;;5031243;28;20473;-76
2021/01/17 09:59:16;;;;;;;11.37;6.70;;;0.00;99.90;;;;;;5024697;28;20814;-76
2021/01/17 10:01:43;;;;;;;11.00;6.80;;;0.10;99.90;;;;;;5032919;28;20268;-76
2021/01/17 10:04:23;;;;;;;13.37;7.13;;;0.10;99.90;;;;;;5032432;28;20488;-77
2021/01/17 10:06:53;;;;;;;13.03;7.20;;;0.10;99.90;;;;;;5031724;28;20989;-76
2021/01/17 10:09:21;;;;;;;10.80;7.50;;;0.10;99.90;;;;;;5032063;28;20477;-76
2021/01/17 10:11:59;;;;;;;11.13;7.40;;;0.10;99.90;;;;;;5032932;28;20743;-76
2021/01/17 10:14:27;;;;;;;6.80;5.93;;;0.10;99.90;;;;;;5033294;28;20930;-76
2021/01/17 10:16:54;;;;;;;11.43;6.63;;;0.10;99.90;;;;;;5025271;28;20938;-76
2021/01/17 10:19:39;;;;;;;9.63;6.60;;;0.20;99.90;;;;;;5028133;28;20434;-76
2021/01/17 10:22:10;;;;;;;8.13;5.80;;;0.20;99.90;;;;;;5031637;28;20801;-76
2021/01/17 10:24:36;;;;;;;12.03;6.70;;;0.30;99.90;;;;;;5015410;28;20430;-76
2021/01/17 10:27:04;;;;;;;10.10;6.40;;;0.30;99.90;;;;;;5029658;28;20435;-76
2021/01/17 10:29:33;;;;;;;13.07;6.70;;;0.30;99.90;;;;;;5032900;28;20434;-77
2021/01/17 10:32:02;;;;;;;11.90;7.60;;;0.40;99.90;;;;;;5029929;28;20909;-76
2021/01/17 10:34:31;;;;;;;10.70;7.23;;;0.50;99.90;;;;;;5033300;28;20500;-76
2021/01/17 10:37:03;;;;;;;10.00;6.50;;;0.50;99.90;;;;;;5034749;28;20439;-76
2021/01/17 10:39:30;;;;;;;9.20;6.60;;;0.60;99.90;;;;;;5032749;28;20432;-76
2021/01/17 10:42:22;;;;;;;10.70;6.70;;;0.60;99.90;;;;;;5029463;28;20521;-76
2021/01/17 10:44:50;;;;;;;8.30;6.40;;;0.60;99.90;;;;;;5027640;28;20461;-77
2021/01/17 10:47:55;;;;;;;9.73;6.60;;;0.60;99.90;;;;;;5030321;28;20437;-76
2021/01/17 10:50:23;;;;;;;9.40;5.90;;;0.60;99.90;;;;;;5037771;28;20429;-76
2021/01/17 10:53:04;;;;;;;8.27;5.70;;;0.70;99.90;;;;;;5039640;28;20475;-77
2021/01/17 10:55:37;;;;;;;7.03;5.17;;;0.80;99.90;;;;;;5034022;28;20537;-77
2021/01/17 10:58:07;;;;;;;10.30;5.90;;;0.90;99.90;;;;;;5034542;28;20420;-78
2021/01/17 11:00:33;;;;;;;7.27;5.83;;;1.00;99.90;;;;;;5036387;28;20424;-78
2021/01/17 11:03:00;;;;;;;8.50;5.03;;;1.20;99.90;;;;;;5032526;28;20824;-78
2021/01/17 11:05:27;;;;;;;9.20;5.07;;;1.40;99.90;;;;;;5033899;28;20548;-78
2021/01/17 11:07:53;;;;;;;9.80;6.57;;;1.60;99.90;;;;;;5035941;28;20532;-78
2021/01/17 11:10:19;;;;;;;9.97;6.33;;;1.60;99.90;;;;;;5035625;28;20870;-78
2021/01/17 11:12:45;;;;;;;11.00;6.57;;;1.70;99.90;;;;;;5030676;28;20205;-79
2021/01/17 11:15:20;;;;;;;8.70;6.53;;;1.70;99.90;;;;;;5034125;28;20614;-78
2021/01/17 11:17:56;;;;;;;7.47;5.53;;;1.80;99.90;;;;;;5028084;28;20185;-78
2021/01/17 11:20:26;;;;;;;10.20;6.93;;;1.70;99.90;;;;;;5032569;28;21088;-78
2021/01/17 11:22:58;;;;;;;11.80;6.40;;;1.70;99.90;;;;;;5035499;28;20482;-78
2021/01/17 11:25:24;;;;;;;9.27;6.67;;;1.70;99.90;;;;;;5033601;28;20834;-79
2021/01/17 11:27:56;;;;;;;10.03;6.43;;;1.70;99.90;;;;;;5029787;28;20427;-75
2021/01/17 11:30:25;;;;;;;6.50;5.17;;;1.80;99.90;;;;;;5032272;28;20511;-79
2021/01/17 11:32:52;;;;;;;8.93;6.03;;;1.90;99.90;;;;;;5036504;28;20478;-78
2021/01/17 11:35:25;;;;;;;13.83;6.97;;;2.00;99.90;;;;;;5037577;28;20460;-76
2021/01/17 11:37:51;;;;;;;11.17;7.30;;;2.20;99.90;;;;;;5038351;28;20854;-78
2021/01/17 11:40:20;;;;;;;9.87;6.80;;;2.40;99.90;;;;;;5037668;28;20433;-77
2021/01/17 11:42:47;;;;;;;9.40;6.50;;;2.50;99.90;;;;;;5036805;28;20973;-77
2021/01/17 11:45:19;;;;;;;9.33;6.40;;;2.60;99.90;;;;;;5036853;28;20995;-76
2021/01/17 11:47:46;;;;;;;9.47;6.83;;;2.70;99.90;;;;;;5037836;28;20535;-77
2021/01/17 11:50:17;;;;;;;10.77;7.43;;;2.80;99.90;;;;;;5038780;28;20431;-77
2021/01/17 11:52:43;;;;;;;9.37;7.20;;;2.80;99.90;;;;;;5012171;28;20463;-74
2021/01/17 11:55:10;;;;;;;10.30;6.83;;;2.70;99.90;;;;;;5031707;28;20468;-75
2021/01/17 11:57:36;;;;;;;10.30;6.63;;;2.70;99.90;;;;;;5030632;28;20600;-77
2021/01/17 12:00:06;;;;;;;5.90;4.50;;;2.60;99.90;;;;;;5041112;28;20525;-77
2021/01/17 12:02:39;;;;;;;10.13;6.33;;;2.60;99.90;;;;;;5037794;28;20492;-75
2021/01/17 12:05:06;;;;;;;9.67;7.37;;;2.50;99.90;;;;;;5035370;28;20487;-76
2021/01/17 12:07:32;;;;;;;11.70;6.70;;;2.60;99.90;;;;;;5036922;28;20431;-76
2021/01/17 12:10:09;;;;;;;10.70;6.43;;;2.50;99.90;;;;;;5037500;28;20462;-76
2021/01/17 12:12:39;;;;;;;10.03;7.17;;;2.50;99.90;;;;;;5035257;28;20177;-75
2021/01/17 12:15:06;;;;;;;10.10;7.00;;;2.50;99.90;;;;;;5037091;28;20749;-75
2021/01/17 12:17:32;;;;;;;7.33;6.30;;;2.50;99.90;;;;;;5030438;28;20447;-76
2021/01/17 12:19:58;;;;;;;7.43;6.60;;;2.60;99.90;;;;;;5033149;28;20429;-76
2021/01/17 12:22:24;;;;;;;9.37;6.00;;;2.70;99.90;;;;;;5037018;28;20174;-76
2021/01/17 12:24:49;;;;;;;8.40;5.90;;;2.80;99.90;;;;;;5037464;28;20193;-76
2021/01/17 12:27:15;;;;;;;9.27;6.70;;;2.80;99.90;;;;;;5027497;28;20218;-75
2021/01/17 12:29:41;;;;;;;8.87;5.20;;;2.80;99.90;;;;;;5037961;28;20235;-75
2021/01/17 12:32:07;;;;;;;9.67;6.73;;;2.80;99.90;;;;;;5035617;28;20193;-76
2021/01/17 12:34:33;;;;;;;8.13;5.37;;;2.90;99.90;;;;;;5035207;28;20194;-75
2021/01/17 12:36:59;;;;;;;7.93;5.00;;;2.80;99.90;;;;;;5014481;28;20427;-76
2021/01/17 12:39:25;;;;;;;12.23;5.80;;;2.80;99.90;;;;;;5036667;28;20231;-75
2021/01/17 12:41:51;;;;;;;10.10;5.87;;;2.80;99.90;;;;;;5037279;28;20455;-75
2021/01/17 12:44:19;;;;;;;9.60;6.10;;;2.80;99.90;;;;;;5038363;28;20193;-75
2021/01/17 12:46:46;;;;;;;10.60;6.17;;;2.80;99.90;;;;;;5040162;28;20408;-75
2021/01/17 12:49:14;;;;;;;9.90;6.17;;;2.70;99.90;;;;;;5034765;28;20420;-75
2021/01/17 12:51:40;;;;;;;11.33;6.30;;;2.60;99.90;;;;;;5038733;28;20428;-75